Fallsvale, California
Current Conditions -  °F | °C
As of 12:55 PM on Tuesday 25 Nov 2014 (Local Time) from KL35 Reporting Station
Clear Clear  
Wind Chill: 59°   Ceiling: Unl
Heat Index: 59°   Visibility: 10mi
Dew Point:   Wind: 7mph
Humidity: 9%   Direction: 40°NE
Pressure: 30.49"   Gusts: NA
Location:  34.0725°N, 116.883°W
Report Text: KL35 252055Z AUTO 04006KT 10SM CLR 15/M18 A3049 RMK AO2
Loading
Personal Weather Stations






























Interactive Weather Map New forecast layout! Learn more

10-Day Weather Forecast

Advertisements
Track Severe Weather on mobile